Ford Cliff, PA (16228)

3:01 PM EDT on July 28, 2016 (GMT -0400)
North Buffalo Twp. | | Change Station

Elev 1088 ft 40.76 °N, 79.58 °W | Updated 3 seconds ago

Rain
Rain
74.1 °F
Feels Like 72 °F
N
0.0
Wind Variable Wind from North
Gusts 0.0 mph

Today
High -- | Low -- °F
--% Chance of Precip.
Yesterday
High -- | Low -- °F
Precip. -- in
Pressure 29.96 in
Visibility 10.0 miles
Clouds Mostly Cloudy 800 ft
Mostly Cloudy 1500 ft
Heat Index 72 °F
Dew Point 72 °F
Humidity 93%
Rainfall 0.05 in
Snow Depth Not available.
6:11 AM 8:37 PM
Waning Crescent, 29% visible
METAR KBTP 281855Z AUTO 22006KT 10SM BKN008 BKN015 23/21 A2996 RMK AO1 P0001
Pressure 29.96 in
Visibility 10.0 miles
Clouds Mostly Cloudy 800 ft
Mostly Cloudy 1500 ft
Heat Index 72 °F
Dew Point 72 °F
Humidity 93%
Rainfall 0.05 in
Snow Depth Not available.
6:11 AM 8:37 PM
Waning Crescent, 29% visible
METAR KBTP 281855Z AUTO 22006KT 10SM BKN008 BKN015 23/21 A2996 RMK AO1 P0001

10-Day Weather Forecast

Almanac

Astronomy

Jul. 28, 2016 Rise Set
Actual Time
Civil Twilight
Nautical Twilight
Astronomical Twilight
Moon
Length of Visible Light
Length of Day
Tomorrow will be .
, % of the Moon is Illuminated

Today's Extremes

State Highs State Lows

Community

WunderPhotos

Upload Photos

1,928,186 photos uploaded!

WunderBlog® & News

Nearby

Air Quality

  Air Quality AQ Index Pollutant
Not available.

Snow Depth

Station Depth Elevation

Earthquake Activity

City Distance Mag. Time & Date
Minimum magnitude displayed is 2.5.

Coastal Water Temperatures

Place Temperature

Stations

Nearby Weather Stations

Station Location Temp. Windchill Dew Point Humidity Wind Precip. Elev Updated Type
                   

Watches & Warnings

There are currently no watches in effect.